createdAt,value
2023-04-26T00:01:51.483Z,74.48
2023-04-26T00:06:54.898Z,74.71
2023-04-26T00:11:58.006Z,75.37
2023-04-26T00:17:02.953Z,75.62
2023-04-26T00:22:06.644Z,76.13
2023-04-26T00:27:10.864Z,76.41
2023-04-26T00:32:13.970Z,76.17
2023-04-26T00:37:17.138Z,76.60
2023-04-26T00:42:20.143Z,76.49
2023-04-26T00:47:29.742Z,76.34
2023-04-26T00:52:32.818Z,76.17
2023-04-26T00:57:35.928Z,75.98
2023-04-26T01:02:39.179Z,76.05
2023-04-26T01:07:42.447Z,76.24
2023-04-26T01:12:46.062Z,76.47
2023-04-26T01:17:49.935Z,76.80
2023-04-26T01:22:52.898Z,77.42
2023-04-26T01:27:55.826Z,77.46
2023-04-26T01:32:58.832Z,76.71
2023-04-26T01:38:02.022Z,76.69
2023-04-26T01:43:05.023Z,76.31
2023-04-26T01:48:09.115Z,76.34
2023-04-26T01:53:12.466Z,76.65
2023-04-26T01:58:15.577Z,76.76
2023-04-26T02:03:18.592Z,77.16
2023-04-26T02:08:21.591Z,77.27
2023-04-26T02:13:24.901Z,77.28
2023-04-26T02:18:27.809Z,76.69
2023-04-26T02:23:30.713Z,76.50
2023-04-26T02:28:33.620Z,76.40
2023-04-26T02:33:36.830Z,75.75
2023-04-26T02:38:39.846Z,74.32
2023-04-26T02:43:42.745Z,74.98
2023-04-26T02:48:45.757Z,74.59
2023-04-26T02:53:48.758Z,74.46
2023-04-26T02:58:52.711Z,74.20
2023-04-26T03:03:56.364Z,74.26
2023-04-26T03:08:59.510Z,74.41
2023-04-26T03:14:02.523Z,74.80
2023-04-26T03:19:05.732Z,75.02
2023-04-26T03:24:08.838Z,75.23
2023-04-26T03:29:12.977Z,75.47
2023-04-26T03:34:15.992Z,75.66
2023-04-26T03:39:19.299Z,74.92
2023-04-26T03:44:22.304Z,75.33
2023-04-26T03:49:25.411Z,74.44
2023-04-26T03:54:28.318Z,74.44
2023-04-26T03:59:34.703Z,74.13
2023-04-26T04:04:37.943Z,72.60
2023-04-26T04:09:41.017Z,70.67
2023-04-26T04:14:43.927Z,67.75
2023-04-26T04:19:46.825Z,63.15
2023-04-26T04:24:49.837Z,60.38
2023-04-26T04:29:56.257Z,60.29
2023-04-26T04:34:59.840Z,58.45
2023-04-26T04:40:03.057Z,56.81
2023-04-26T04:45:07.030Z,53.33
2023-04-26T04:50:10.297Z,51.02
2023-04-26T04:55:13.448Z,47.26
2023-04-26T05:00:17.382Z,46.03
2023-04-26T05:05:20.902Z,43.66
2023-04-26T05:10:23.859Z,42.14
2023-04-26T05:15:27.232Z,41.73
2023-04-26T05:20:31.222Z,38.96
2023-04-26T05:25:37.589Z,38.68
2023-04-26T05:30:40.994Z,37.30
2023-04-26T05:35:44.013Z,35.80
2023-04-26T05:40:48.455Z,34.61
2023-04-26T05:45:56.638Z,35.20
2023-04-26T05:50:59.625Z,34.57
2023-04-26T05:56:02.694Z,34.03
2023-04-26T06:01:06.416Z,34.57
2023-04-26T06:06:09.829Z,34.77
2023-04-26T06:11:12.846Z,33.53
2023-04-26T06:16:16.290Z,35.89
2023-04-26T06:21:20.079Z,34.42
2023-04-26T06:26:23.097Z,33.39
2023-04-26T06:31:26.430Z,32.98
2023-04-26T06:36:29.716Z,31.82
2023-04-26T06:41:32.831Z,31.43
2023-04-26T06:46:35.959Z,32.99
2023-04-26T06:51:39.247Z,35.13
2023-04-26T06:56:42.153Z,35.97
2023-04-26T07:01:45.307Z,37.36
2023-04-26T07:06:49.117Z,36.26
2023-04-26T07:11:52.313Z,35.93
2023-04-26T07:16:55.308Z,36.45
2023-04-26T07:21:58.525Z,36.99
2023-04-26T07:27:02.240Z,38.40
2023-04-26T07:32:05.759Z,37.87
2023-04-26T07:37:09.381Z,39.08
2023-04-26T07:42:12.692Z,39.25
2023-04-26T07:47:16.119Z,40.30
2023-04-26T07:52:19.321Z,41.90
2023-04-26T07:57:22.427Z,43.65
2023-04-26T08:02:33.231Z,44.30
2023-04-26T08:07:46.872Z,44.61
2023-04-26T08:12:50.390Z,45.54
2023-04-26T08:17:53.625Z,47.14
2023-04-26T08:22:57.447Z,47.67
2023-04-26T08:28:01.001Z,46.47
2023-04-26T08:33:04.086Z,45.44
2023-04-26T08:38:07.475Z,46.73
2023-04-26T08:43:11.294Z,47.64
2023-04-26T08:48:16.404Z,48.50
2023-04-26T08:53:20.076Z,50.32
2023-04-26T08:58:23.898Z,51.69
2023-04-26T09:03:27.597Z,51.44
2023-04-26T09:08:30.940Z,51.07
2023-04-26T09:13:34.157Z,50.32
2023-04-26T09:18:49.993Z,49.35
2023-04-26T09:24:01.900Z,47.98
2023-04-26T09:29:19.163Z,47.42
2023-04-26T09:34:22.537Z,47.48
2023-04-26T09:39:32.905Z,46.68
2023-04-26T09:44:36.211Z,45.49
2023-04-26T09:49:50.978Z,44.92
2023-04-26T09:54:55.133Z,45.43
2023-04-26T09:59:58.357Z,46.32
2023-04-26T10:05:03.138Z,46.97
2023-04-26T10:10:07.977Z,47.78
2023-04-26T10:15:12.196Z,48.30
2023-04-26T10:20:18.466Z,47.97
2023-04-26T10:25:21.876Z,47.99
2023-04-26T10:30:25.102Z,48.24
2023-04-26T10:35:30.506Z,48.75
2023-04-26T10:40:40.442Z,49.88
2023-04-26T10:45:45.904Z,50.11
2023-04-26T10:51:13.470Z,50.10
2023-04-26T10:56:25.890Z,49.52
2023-04-26T11:01:30.845Z,50.04
2023-04-26T11:06:58.065Z,49.69
2023-04-26T11:12:01.141Z,49.13
2023-04-26T11:17:08.395Z,50.62
2023-04-26T11:22:11.549Z,51.44
2023-04-26T11:27:14.759Z,51.20
2023-04-26T11:32:20.326Z,50.59
2023-04-26T11:37:23.431Z,51.30
2023-04-26T11:42:26.952Z,51.87
2023-04-26T11:47:31.597Z,52.45
2023-04-26T11:52:34.705Z,52.84
2023-04-26T11:57:37.914Z,53.68
2023-04-26T12:02:48.282Z,54.40
2023-04-26T12:07:57.038Z,53.58
2023-04-26T12:13:00.476Z,52.65
2023-04-26T12:18:11.806Z,52.25
2023-04-26T12:23:17.456Z,52.27
2023-04-26T12:28:20.977Z,52.73
2023-04-26T12:33:25.692Z,53.18
2023-04-26T12:38:28.899Z,54.44
2023-04-26T12:43:32.528Z,56.10
2023-04-26T12:48:36.403Z,56.95
2023-04-26T12:53:39.462Z,57.38
2023-04-26T12:58:42.773Z,57.56
2023-04-26T13:03:46.685Z,57.22
2023-04-26T13:08:50.017Z,57.02
2023-04-26T13:13:53.090Z,56.17
2023-04-26T13:18:56.571Z,55.56
2023-04-26T13:23:59.751Z,55.13
2023-04-26T13:29:04.520Z,53.31
2023-04-26T13:34:07.824Z,52.43
2023-04-26T13:39:11.122Z,52.71
2023-04-26T13:44:15.865Z,52.60
2023-04-26T13:49:18.979Z,52.36
2023-04-26T13:54:22.803Z,52.62
2023-04-26T13:59:27.282Z,53.12
2023-04-26T14:04:31.156Z,53.21
2023-04-26T14:09:34.690Z,53.34
2023-04-26T14:14:38.006Z,52.89
2023-04-26T14:19:42.608Z,53.90
2023-04-26T14:24:46.374Z,55.11
2023-04-26T14:29:49.807Z,55.30
2023-04-26T14:34:53.012Z,56.04
2023-04-26T14:39:56.416Z,55.80
2023-04-26T14:45:00.353Z,55.61
2023-04-26T14:50:04.728Z,55.48
2023-04-26T14:55:08.864Z,55.30
2023-04-26T15:00:15.636Z,55.13
2023-04-26T15:05:18.936Z,54.71
2023-04-26T15:10:22.134Z,55.09
2023-04-26T15:15:25.247Z,54.19
2023-04-26T15:20:28.597Z,53.96
2023-04-26T15:25:35.191Z,54.34
2023-04-26T15:30:38.252Z,54.30
2023-04-26T15:35:41.770Z,54.02
2023-04-26T15:40:45.291Z,53.80
2023-04-26T15:45:50.066Z,51.98
2023-04-26T15:50:57.172Z,48.79
2023-04-26T15:56:00.480Z,47.17
2023-04-26T16:01:03.807Z,45.79
2023-04-26T16:06:08.828Z,44.99
2023-04-26T16:11:11.937Z,45.95
2023-04-26T16:16:15.179Z,45.96
2023-04-26T16:21:18.252Z,45.14
2023-04-26T16:26:22.389Z,43.96
2023-04-26T16:31:26.709Z,44.93
2023-04-26T16:36:30.148Z,44.21
2023-04-26T16:41:33.574Z,42.57
2023-04-26T16:46:37.198Z,43.37
2023-04-26T16:51:41.115Z,44.33
2023-04-26T16:56:44.221Z,44.09
2023-04-26T17:01:50.845Z,43.33
2023-04-26T17:06:55.041Z,44.05
2023-04-26T17:11:58.365Z,44.37
2023-04-26T17:17:01.460Z,45.17
2023-04-26T17:22:06.418Z,45.96
2023-04-26T17:27:09.538Z,46.56
2023-04-26T17:32:12.777Z,47.39
2023-04-26T17:37:15.847Z,48.12
2023-04-26T17:42:19.062Z,48.04
2023-04-26T17:47:22.481Z,48.28
2023-04-26T17:52:25.690Z,48.73
2023-04-26T17:57:28.791Z,49.23
2023-04-26T18:02:32.134Z,49.76
2023-04-26T18:07:35.729Z,50.32
2023-04-26T18:12:38.931Z,51.34
2023-04-26T18:17:42.118Z,52.17
2023-04-26T18:22:45.253Z,52.89
2023-04-26T18:27:49.103Z,52.24
2023-04-26T18:32:53.374Z,53.45
2023-04-26T18:37:57.352Z,53.92
2023-04-26T18:43:00.675Z,53.83
2023-04-26T18:48:04.204Z,53.56
2023-04-26T18:53:07.391Z,53.75
2023-04-26T18:58:10.952Z,53.98
2023-04-26T19:03:14.174Z,54.10
2023-04-26T19:08:17.825Z,53.79
2023-04-26T19:13:21.115Z,54.30
2023-04-26T19:18:24.385Z,54.84
2023-04-26T19:23:27.593Z,54.10
2023-04-26T19:28:31.275Z,54.34
2023-04-26T19:33:34.318Z,54.59
2023-04-26T19:38:37.524Z,54.57
2023-04-26T19:43:40.746Z,54.80
2023-04-26T19:48:43.951Z,54.76
2023-04-26T19:53:47.165Z,55.68
2023-04-26T19:58:50.377Z,55.52
2023-04-26T20:03:53.772Z,55.81
2023-04-26T20:08:57.015Z,56.29
2023-04-26T20:14:00.416Z,56.20
2023-04-26T20:19:03.726Z,56.47
2023-04-26T20:24:07.309Z,56.16
2023-04-26T20:29:10.355Z,56.66
2023-04-26T20:34:13.362Z,56.73
2023-04-26T20:39:16.770Z,56.80
2023-04-26T20:44:19.877Z,57.06
2023-04-26T20:49:23.269Z,57.19
2023-04-26T20:54:26.409Z,57.45
2023-04-26T20:59:29.518Z,57.48
2023-04-26T21:04:32.886Z,57.33
2023-04-26T21:09:36.150Z,57.68
2023-04-26T21:14:39.253Z,57.83
2023-04-26T21:19:42.853Z,58.17
2023-04-26T21:24:45.984Z,58.20
2023-04-26T21:29:48.989Z,58.57
2023-04-26T21:34:52.097Z,58.59
2023-04-26T21:39:55.108Z,58.98
2023-04-26T21:44:58.113Z,59.11
2023-04-26T21:50:01.336Z,59.29
2023-04-26T21:55:04.917Z,59.63
2023-04-26T22:00:11.814Z,59.49
2023-04-26T22:05:14.745Z,59.71
2023-04-26T22:10:18.242Z,59.84
2023-04-26T22:15:21.583Z,59.92
2023-04-26T22:20:24.728Z,60.02
2023-04-26T22:25:27.692Z,60.32
2023-04-26T22:30:30.635Z,60.55
2023-04-26T22:35:33.618Z,60.63
2023-04-26T22:40:36.817Z,60.94
2023-04-26T22:45:39.838Z,61.06
2023-04-26T22:50:43.147Z,61.15
2023-04-26T22:55:46.450Z,61.48
2023-04-26T23:00:49.473Z,61.40
2023-04-26T23:05:52.571Z,61.67
2023-04-26T23:10:55.474Z,61.76
2023-04-26T23:15:58.480Z,67.32
2023-04-26T23:21:01.698Z,71.85
2023-04-26T23:26:08.241Z,70.11
2023-04-26T23:31:11.546Z,68.73
2023-04-26T23:36:14.600Z,66.63
2023-04-26T23:41:17.502Z,65.17
2023-04-26T23:46:20.548Z,64.28
2023-04-26T23:51:23.621Z,62.79
2023-04-26T23:56:26.623Z,61.81
